createdAt,value
2019-06-01T00:00:11.336Z,59.50
2019-06-01T00:01:09.129Z,59.40
2019-06-01T00:02:10.482Z,59.50
2019-06-01T00:03:11.558Z,59.30
2019-06-01T00:04:12.633Z,59.20
2019-06-01T00:05:13.777Z,59.00
2019-06-01T00:06:15.079Z,58.90
2019-06-01T00:07:16.096Z,58.90
2019-06-01T00:08:17.127Z,59.00
2019-06-01T00:09:18.726Z,58.90
2019-06-01T00:10:19.903Z,59.10
2019-06-01T00:11:20.935Z,59.50
2019-06-01T00:12:22.160Z,58.80
2019-06-01T00:13:23.505Z,58.80
2019-06-01T00:14:24.547Z,58.90
2019-06-01T00:15:25.624Z,59.10
2019-06-01T00:16:26.650Z,59.10
2019-06-01T00:17:27.701Z,59.30
2019-06-01T00:18:28.728Z,59.10
2019-06-01T00:19:29.755Z,59.00
2019-06-01T00:20:30.814Z,58.80
2019-06-01T00:21:31.811Z,58.70
2019-06-01T00:22:32.832Z,58.70
2019-06-01T00:23:33.862Z,58.60
2019-06-01T00:24:34.889Z,58.60
2019-06-01T00:25:35.924Z,58.70
2019-06-01T00:26:36.945Z,58.70
2019-06-01T00:27:37.976Z,58.90
2019-06-01T00:28:39.179Z,58.80
2019-06-01T00:29:40.606Z,59.00
2019-06-01T00:30:41.749Z,59.10
2019-06-01T00:31:43.105Z,59.10
2019-06-01T00:32:45.194Z,59.40
2019-06-01T00:33:47.593Z,59.50
2019-06-01T00:34:49.882Z,59.50
2019-06-01T00:35:51.639Z,59.60
2019-06-01T00:36:52.680Z,60.10
2019-06-01T00:37:53.724Z,59.50
2019-06-01T00:38:54.752Z,59.30
2019-06-01T00:39:56.060Z,59.50
2019-06-01T00:40:57.145Z,59.50
2019-06-01T00:41:58.159Z,59.60
2019-06-01T00:42:59.388Z,59.80
2019-06-01T00:44:00.420Z,59.60
2019-06-01T00:45:01.819Z,59.60
2019-06-01T00:46:03.230Z,59.40
2019-06-01T00:47:04.268Z,59.50
2019-06-01T00:48:05.288Z,59.40
2019-06-01T00:49:06.305Z,59.50
2019-06-01T00:50:08.242Z,59.40
2019-06-01T00:51:09.260Z,59.50
2019-06-01T00:52:10.289Z,59.40
2019-06-01T00:53:11.517Z,59.70
2019-06-01T00:54:12.757Z,59.50
2019-06-01T00:55:13.785Z,59.50
2019-06-01T00:56:15.020Z,59.50
2019-06-01T00:57:16.087Z,59.50
2019-06-01T00:58:17.218Z,59.50
2019-06-01T00:59:18.253Z,59.70
2019-06-01T01:00:19.482Z,59.60
2019-06-01T01:01:20.610Z,59.60
2019-06-01T01:02:21.630Z,59.80
2019-06-01T01:03:22.675Z,59.70
2019-06-01T01:04:23.691Z,59.70
2019-06-01T01:05:24.922Z,59.70
2019-06-01T01:06:25.979Z,59.70
2019-06-01T01:07:27.002Z,59.80
2019-06-01T01:08:28.071Z,60.00
2019-06-01T01:09:29.175Z,59.90
2019-06-01T01:10:30.207Z,60.00
2019-06-01T01:11:31.235Z,60.10
2019-06-01T01:12:34.156Z,60.10
2019-06-01T01:13:35.195Z,60.00
2019-06-01T01:14:36.220Z,60.10
2019-06-01T01:15:37.262Z,60.10
2019-06-01T01:16:38.696Z,60.20
2019-06-01T01:17:39.717Z,60.10
2019-06-01T01:18:40.731Z,60.20
2019-06-01T01:19:41.753Z,60.30
2019-06-01T01:20:43.080Z,60.20
2019-06-01T01:21:44.308Z,60.10
2019-06-01T01:22:46.095Z,60.20
2019-06-01T01:23:48.216Z,60.10
2019-06-01T01:24:50.427Z,60.10
2019-06-01T01:25:52.599Z,60.20
2019-06-01T01:26:54.710Z,60.00
2019-06-01T01:27:57.039Z,60.30
2019-06-01T01:28:58.241Z,60.20
2019-06-01T01:29:59.260Z,60.20
2019-06-01T01:31:12.748Z,60.40
2019-06-01T01:32:03.512Z,60.20
2019-06-01T01:33:04.538Z,60.20
2019-06-01T01:34:05.594Z,60.40
2019-06-01T01:35:06.616Z,60.80
2019-06-01T01:36:07.668Z,61.10
2019-06-01T01:37:08.697Z,61.00
2019-06-01T01:38:09.719Z,60.90
2019-06-01T01:39:10.739Z,61.00
2019-06-01T01:40:11.864Z,61.50
2019-06-01T01:41:12.944Z,61.70
2019-06-01T01:42:13.965Z,61.90
2019-06-01T01:43:14.997Z,62.30
2019-06-01T01:44:16.013Z,62.20
2019-06-01T01:45:17.243Z,62.30
2019-06-01T01:46:18.266Z,62.50
2019-06-01T01:47:19.292Z,62.60
2019-06-01T01:48:20.308Z,62.70
2019-06-01T01:49:21.341Z,63.30
2019-06-01T01:50:23.557Z,62.80
2019-06-01T01:51:24.597Z,62.70
2019-06-01T01:52:25.610Z,62.90
2019-06-01T01:53:26.635Z,62.70
2019-06-01T01:54:27.674Z,63.00
2019-06-01T01:55:28.703Z,63.00
2019-06-01T01:56:29.739Z,62.70
2019-06-01T01:57:30.830Z,62.70
2019-06-01T01:58:31.880Z,62.70
2019-06-01T01:59:32.920Z,62.60
2019-06-01T02:00:46.057Z,62.50
2019-06-01T02:01:47.141Z,62.30
2019-06-01T02:02:48.359Z,62.30
2019-06-01T02:03:51.045Z,62.30
2019-06-01T02:04:52.327Z,62.40
2019-06-01T02:05:53.356Z,62.50
2019-06-01T02:06:54.400Z,62.50
2019-06-01T02:07:55.408Z,62.50
2019-06-01T02:08:57.120Z,62.50
2019-06-01T02:09:59.277Z,62.80
2019-06-01T02:11:01.691Z,63.00
2019-06-01T02:12:03.113Z,63.10
2019-06-01T02:13:04.856Z,63.20
2019-06-01T02:14:05.878Z,63.30
2019-06-01T02:15:08.504Z,63.20
2019-06-01T02:22:21.397Z,63.90
2019-06-01T02:23:22.413Z,64.40
2019-06-01T02:24:23.546Z,64.40
2019-06-01T02:25:24.901Z,64.50
2019-06-01T02:26:25.924Z,64.60
2019-06-01T02:27:26.978Z,64.40
2019-06-01T02:28:28.028Z,64.40
2019-06-01T02:29:29.046Z,64.90
2019-06-01T02:30:30.478Z,64.60
2019-06-01T02:31:41.689Z,64.60
2019-06-01T02:32:34.556Z,64.50
2019-06-01T02:33:35.585Z,64.50
2019-06-01T02:34:36.651Z,64.30
2019-06-01T02:35:37.775Z,64.50
2019-06-01T02:36:38.809Z,64.20
2019-06-01T02:37:39.870Z,64.40
2019-06-01T02:38:40.897Z,64.20
2019-06-01T02:39:41.943Z,64.20
2019-06-01T02:40:42.961Z,64.10
2019-06-01T02:41:44.100Z,64.20
2019-06-01T02:42:45.937Z,64.30
2019-06-01T02:43:46.966Z,64.40
2019-06-01T02:44:47.986Z,64.40
2019-06-01T02:45:49.018Z,64.40
2019-06-01T02:46:50.029Z,64.40
2019-06-01T02:47:51.091Z,64.40
2019-06-01T02:48:52.105Z,63.90
2019-06-01T02:49:53.426Z,64.30
2019-06-01T02:50:55.791Z,64.40
2019-06-01T02:51:57.199Z,64.30
2019-06-01T02:52:59.403Z,64.20
2019-06-01T02:54:01.739Z,64.40
2019-06-01T02:55:09.875Z,64.50
2019-06-01T02:56:10.885Z,64.30
2019-06-01T02:57:11.934Z,64.40
2019-06-01T02:58:12.980Z,64.30
2019-06-01T02:59:14.077Z,64.20
2019-06-01T03:00:18.101Z,64.20
2019-06-01T03:01:31.939Z,64.10
2019-06-01T03:02:35.377Z,64.10
2019-06-01T03:03:37.111Z,64.00
2019-06-01T03:04:38.149Z,64.10
2019-06-01T03:05:39.294Z,64.10
2019-06-01T03:06:41.973Z,64.10
2019-06-01T03:07:45.390Z,64.10
2019-06-01T03:08:48.424Z,64.10
2019-06-01T03:09:49.999Z,64.30
2019-06-01T03:10:51.920Z,64.50
2019-06-01T03:11:55.056Z,64.50
2019-06-01T03:12:58.143Z,64.60
2019-06-01T03:14:02.445Z,64.70
2019-06-01T03:15:06.477Z,64.70
2019-06-01T03:16:11.026Z,64.70
2019-06-01T03:17:13.355Z,64.90
2019-06-01T03:18:16.793Z,65.00
2019-06-01T03:19:19.021Z,65.00
2019-06-01T03:20:20.277Z,64.90
2019-06-01T03:21:24.305Z,65.00
2019-06-01T03:22:26.832Z,65.10
2019-06-01T03:23:29.669Z,65.10
2019-06-01T03:24:34.214Z,65.20
2019-06-01T03:25:38.153Z,65.00
2019-06-01T03:26:41.801Z,65.10
2019-06-01T03:27:44.776Z,65.00
2019-06-01T03:28:49.606Z,65.00
2019-06-01T03:29:55.502Z,65.00
2019-06-01T03:30:56.887Z,65.00
2019-06-01T03:32:19.440Z,65.10
2019-06-01T03:33:01.205Z,65.20
2019-06-01T03:34:04.452Z,65.00
2019-06-01T03:35:06.834Z,65.00
2019-06-01T03:36:08.996Z,65.00
2019-06-01T03:37:10.198Z,65.00
2019-06-01T03:38:11.350Z,65.00
2019-06-01T03:39:13.054Z,65.00
2019-06-01T03:40:23.419Z,65.00
2019-06-01T03:41:17.345Z,64.90
2019-06-01T03:42:18.476Z,65.00
2019-06-01T03:43:19.913Z,65.50
2019-06-01T03:44:20.949Z,65.50
2019-06-01T03:45:21.961Z,65.50
2019-06-01T03:46:22.991Z,65.50
2019-06-01T03:47:24.025Z,65.70
2019-06-01T03:48:25.058Z,65.60
2019-06-01T03:49:26.073Z,65.50
2019-06-01T03:50:27.104Z,66.10
2019-06-01T03:51:28.154Z,65.40
2019-06-01T03:52:29.181Z,65.40
2019-06-01T03:53:30.218Z,65.40
2019-06-01T03:54:31.244Z,65.50
2019-06-01T03:55:32.262Z,65.50
2019-06-01T03:56:33.288Z,65.40
2019-06-01T03:57:34.322Z,65.30
2019-06-01T03:58:35.549Z,65.30
2019-06-01T03:59:36.582Z,65.10
2019-06-01T04:00:37.616Z,65.30
2019-06-01T04:01:38.665Z,65.40
2019-06-01T04:02:39.677Z,65.40
2019-06-01T04:03:40.737Z,65.40
2019-06-01T04:04:41.862Z,65.40
2019-06-01T04:05:42.881Z,66.40
2019-06-01T04:06:43.904Z,65.70
2019-06-01T04:07:44.962Z,65.50
2019-06-01T04:08:46.057Z,65.50
2019-06-01T04:09:47.165Z,65.50
2019-06-01T04:10:48.196Z,66.30
2019-06-01T04:11:49.221Z,65.70
2019-06-01T04:12:50.245Z,65.70
2019-06-01T04:13:51.296Z,65.50
2019-06-01T04:14:52.327Z,65.60
2019-06-01T04:15:53.345Z,65.70
2019-06-01T04:16:54.625Z,65.80
2019-06-01T04:17:55.645Z,66.00
2019-06-01T04:18:56.685Z,66.20
2019-06-01T04:19:57.718Z,66.20
2019-06-01T04:20:58.745Z,66.30
2019-06-01T04:21:59.807Z,66.90
2019-06-01T04:23:01.996Z,66.20
2019-06-01T04:24:04.006Z,66.20
2019-06-01T04:25:05.979Z,66.40
2019-06-01T04:26:08.123Z,66.10
2019-06-01T04:27:10.225Z,66.30
2019-06-01T04:28:12.577Z,66.50
2019-06-01T04:29:13.933Z,66.50
2019-06-01T04:30:15.055Z,66.30
2019-06-01T04:31:16.068Z,66.40
2019-06-01T04:32:17.101Z,66.30
2019-06-01T04:33:18.385Z,66.40
2019-06-01T04:34:19.433Z,66.40
2019-06-01T04:35:20.449Z,66.40
2019-06-01T04:36:21.476Z,66.40
2019-06-01T04:37:22.511Z,66.40
2019-06-01T04:38:23.554Z,66.40
2019-06-01T04:39:24.586Z,66.40
2019-06-01T04:40:25.623Z,66.70
2019-06-01T04:41:26.624Z,66.60
2019-06-01T04:42:27.664Z,66.60
2019-06-01T04:43:28.692Z,66.40
2019-06-01T04:44:29.829Z,66.30
2019-06-01T04:45:31.761Z,66.40
2019-06-01T04:46:32.789Z,66.50
2019-06-01T04:47:33.837Z,66.50
2019-06-01T04:48:34.868Z,66.50
2019-06-01T04:49:35.919Z,66.30
2019-06-01T04:50:36.944Z,66.30
2019-06-01T04:51:37.969Z,66.20
2019-06-01T04:52:39.194Z,66.30
2019-06-01T04:53:40.338Z,66.20
2019-06-01T04:54:42.088Z,66.40
2019-06-01T04:55:43.124Z,66.10
2019-06-01T04:56:44.156Z,66.20
2019-06-01T04:57:45.193Z,66.20
2019-06-01T04:58:46.218Z,66.20
2019-06-01T04:59:47.258Z,66.50
2019-06-01T05:00:48.322Z,66.40
2019-06-01T05:01:49.435Z,66.50
2019-06-01T05:03:04.578Z,66.30
2019-06-01T05:03:53.529Z,66.50
2019-06-01T05:04:54.575Z,66.30
2019-06-01T05:05:55.593Z,66.10
2019-06-01T05:06:56.623Z,66.00
2019-06-01T05:07:57.852Z,66.00
2019-06-01T05:08:58.881Z,65.90
2019-06-01T05:09:59.901Z,65.90
2019-06-01T05:11:05.073Z,65.70
2019-06-01T05:12:05.177Z,65.70
2019-06-01T05:13:07.328Z,65.70
2019-06-01T05:14:09.599Z,65.70
2019-06-01T05:15:13.914Z,65.80
2019-06-01T05:16:16.465Z,65.80
2019-06-01T05:17:17.817Z,65.80
2019-06-01T05:18:19.728Z,65.70
2019-06-01T05:19:20.951Z,65.80
2019-06-01T05:20:22.001Z,65.40
2019-06-01T05:21:23.019Z,65.40
2019-06-01T05:22:24.664Z,65.60
2019-06-01T05:23:25.805Z,65.40
2019-06-01T05:24:26.853Z,65.50
2019-06-01T05:25:27.874Z,65.10
2019-06-01T05:26:29.192Z,65.10
2019-06-01T05:27:30.226Z,65.20
2019-06-01T05:28:31.273Z,65.10
2019-06-01T05:29:32.313Z,65.10
2019-06-01T05:30:33.353Z,65.20
2019-06-01T05:31:34.380Z,64.70
2019-06-01T05:32:35.420Z,64.60
2019-06-01T05:33:37.577Z,64.10
2019-06-01T05:34:38.982Z,63.80
2019-06-01T05:35:40.013Z,63.80
2019-06-01T05:36:41.047Z,63.80
2019-06-01T05:37:42.091Z,63.50
2019-06-01T05:38:43.109Z,63.70
2019-06-01T05:39:44.172Z,63.40
2019-06-01T05:40:45.265Z,63.40
2019-06-01T05:41:46.293Z,63.10
2019-06-01T05:42:47.325Z,63.20
2019-06-01T05:43:48.361Z,63.00
2019-06-01T05:44:49.388Z,62.70
2019-06-01T05:45:50.416Z,62.40
2019-06-01T05:46:51.659Z,62.00
2019-06-01T05:47:52.888Z,61.90
2019-06-01T05:48:53.922Z,61.60
2019-06-01T05:49:54.952Z,61.20
2019-06-01T05:50:55.987Z,61.30
2019-06-01T05:51:57.012Z,60.80
2019-06-01T05:52:58.055Z,60.90
2019-06-01T05:53:59.079Z,60.80
2019-06-01T05:55:00.422Z,59.90
2019-06-01T05:56:01.492Z,60.00
2019-06-01T05:57:02.682Z,59.60
2019-06-01T05:58:03.718Z,59.40
2019-06-01T05:59:04.733Z,58.70
2019-06-01T06:00:07.165Z,58.50
2019-06-01T06:01:08.185Z,57.80
2019-06-01T06:02:09.240Z,57.80
2019-06-01T06:03:12.824Z,57.70
2019-06-01T06:04:13.449Z,57.50
2019-06-01T06:05:15.058Z,57.00
2019-06-01T06:06:16.097Z,56.90
2019-06-01T06:07:17.122Z,56.80
2019-06-01T06:08:18.143Z,56.50
2019-06-01T06:09:19.213Z,56.60
2019-06-01T06:10:20.554Z,56.50
2019-06-01T06:11:21.588Z,56.20
2019-06-01T06:12:22.621Z,56.20
2019-06-01T06:13:23.643Z,55.50
2019-06-01T06:14:24.682Z,54.90
2019-06-01T06:15:25.741Z,54.40
2019-06-01T06:16:26.895Z,54.40
2019-06-01T06:17:27.933Z,54.30
2019-06-01T06:18:28.957Z,54.50
2019-06-01T06:19:30.015Z,54.30
2019-06-01T06:20:31.026Z,54.30
2019-06-01T06:21:32.058Z,54.40
2019-06-01T06:22:33.080Z,54.40
2019-06-01T06:23:34.105Z,54.20
2019-06-01T06:24:35.123Z,54.50
2019-06-01T06:25:38.395Z,54.10
2019-06-01T06:26:39.184Z,54.00
2019-06-01T06:27:40.328Z,54.00
2019-06-01T06:28:41.381Z,54.10
2019-06-01T06:29:42.413Z,54.20
2019-06-01T06:30:43.444Z,54.20
2019-06-01T06:31:44.471Z,54.30
2019-06-01T06:32:45.504Z,53.80
2019-06-01T06:33:55.863Z,53.20
2019-06-01T06:34:49.479Z,53.50
2019-06-01T06:35:50.707Z,53.50
2019-06-01T06:36:51.739Z,53.30
2019-06-01T06:37:52.777Z,52.80
2019-06-01T06:38:53.806Z,52.60
2019-06-01T06:39:54.926Z,52.20
2019-06-01T06:40:56.066Z,52.30
2019-06-01T06:41:57.277Z,52.50
2019-06-01T06:42:58.375Z,52.10
2019-06-01T06:43:59.403Z,52.20
2019-06-01T06:45:02.900Z,52.40
2019-06-01T06:46:03.379Z,52.50
2019-06-01T06:47:04.817Z,52.40
2019-06-01T06:48:05.937Z,52.50
2019-06-01T06:49:09.819Z,52.60
2019-06-01T06:50:16.456Z,52.50
2019-06-01T06:51:19.326Z,52.30
2019-06-01T06:52:21.507Z,52.40
2019-06-01T06:53:32.403Z,52.30
2019-06-01T06:54:26.715Z,52.50
2019-06-01T06:55:27.863Z,52.30
2019-06-01T06:56:28.977Z,52.30
2019-06-01T06:57:30.105Z,52.50
2019-06-01T06:58:31.230Z,52.50
2019-06-01T06:59:32.349Z,53.40
2019-06-01T07:00:33.492Z,53.30
2019-06-01T07:01:34.518Z,52.50
2019-06-01T07:02:35.534Z,52.10
2019-06-01T07:03:36.877Z,51.90
2019-06-01T07:04:37.913Z,51.80
2019-06-01T07:05:38.952Z,51.80
2019-06-01T07:06:40.196Z,52.10
2019-06-01T07:07:41.301Z,51.70
2019-06-01T07:08:42.320Z,51.40
2019-06-01T07:09:43.365Z,51.10
2019-06-01T07:10:44.416Z,51.50
2019-06-01T07:11:45.428Z,51.30
2019-06-01T07:12:46.569Z,51.70
2019-06-01T07:13:47.587Z,50.70
2019-06-01T07:14:48.629Z,50.60
2019-06-01T07:15:49.746Z,50.60
2019-06-01T07:16:50.789Z,51.00
2019-06-01T07:17:51.812Z,51.10
2019-06-01T07:18:52.829Z,51.20
2019-06-01T07:19:53.863Z,51.20
2019-06-01T07:20:54.925Z,50.70
2019-06-01T07:21:55.956Z,50.70
2019-06-01T07:22:57.085Z,50.70
2019-06-01T07:23:58.107Z,50.70
2019-06-01T07:24:59.137Z,50.70
2019-06-01T07:26:00.170Z,50.80
2019-06-01T07:27:01.290Z,50.80
2019-06-01T07:28:02.572Z,50.80
2019-06-01T07:29:03.660Z,50.70
2019-06-01T07:30:05.389Z,50.50
2019-06-01T07:31:06.430Z,49.90
2019-06-01T07:32:07.461Z,50.30
2019-06-01T07:33:08.723Z,50.20
2019-06-01T07:34:09.925Z,50.20
2019-06-01T07:35:11.656Z,49.70
2019-06-01T07:36:12.703Z,50.10
2019-06-01T07:37:13.974Z,49.70
2019-06-01T07:38:15.023Z,49.70
2019-06-01T07:39:16.063Z,49.70
2019-06-01T07:40:17.382Z,49.40
2019-06-01T07:41:18.419Z,49.70
2019-06-01T07:42:23.028Z,49.80
2019-06-01T07:43:22.632Z,49.40
2019-06-01T07:44:24.990Z,49.40
2019-06-01T07:45:26.952Z,49.30
2019-06-01T07:46:29.011Z,49.00
2019-06-01T07:47:30.336Z,49.40
2019-06-01T07:48:31.372Z,49.20
2019-06-01T07:49:32.424Z,49.30
2019-06-01T07:50:33.446Z,49.10
2019-06-01T07:51:34.482Z,49.00
2019-06-01T07:52:35.526Z,48.30
2019-06-01T07:53:36.651Z,48.20
2019-06-01T07:54:37.709Z,48.40
2019-06-01T07:55:38.742Z,48.20
2019-06-01T07:56:39.769Z,48.00
2019-06-01T07:57:43.294Z,48.00
2019-06-01T07:58:43.741Z,47.70
2019-06-01T07:59:44.773Z,47.10
2019-06-01T08:00:45.801Z,46.50
2019-06-01T08:01:46.850Z,46.20
2019-06-01T08:02:48.089Z,46.40
2019-06-01T08:03:49.105Z,46.20
2019-06-01T08:04:54.043Z,45.70
2019-06-01T08:05:53.071Z,45.60
2019-06-01T08:06:54.138Z,45.10
2019-06-01T08:07:55.258Z,45.40
2019-06-01T08:08:56.317Z,45.90
2019-06-01T08:09:57.456Z,45.30
2019-06-01T08:10:58.573Z,45.70
2019-06-01T08:11:59.614Z,45.80
2019-06-01T08:13:00.645Z,45.30
2019-06-01T08:14:02.489Z,44.90
2019-06-01T08:15:06.958Z,45.10
2019-06-01T08:16:07.990Z,45.20
2019-06-01T08:17:09.034Z,44.80
2019-06-01T08:18:10.077Z,45.00
2019-06-01T08:19:11.080Z,44.80
2019-06-01T08:20:12.309Z,44.70
2019-06-01T08:21:13.376Z,44.50
2019-06-01T08:22:14.493Z,44.90
2019-06-01T08:23:15.541Z,45.00
2019-06-01T08:24:16.668Z,43.50
2019-06-01T08:25:17.715Z,44.10
2019-06-01T08:26:20.063Z,44.40
2019-06-01T08:27:22.401Z,44.50
2019-06-01T08:28:24.386Z,44.40
2019-06-01T08:29:26.651Z,44.50
2019-06-01T08:30:28.632Z,44.80
2019-06-01T08:31:31.841Z,44.10
2019-06-01T08:32:33.031Z,44.00
2019-06-01T08:33:35.039Z,44.10
2019-06-01T08:34:36.157Z,44.60
2019-06-01T08:35:37.172Z,43.70
2019-06-01T08:36:38.217Z,44.20
2019-06-01T08:37:39.249Z,43.80
2019-06-01T08:38:40.274Z,44.20
2019-06-01T08:39:41.293Z,43.80
2019-06-01T08:40:42.409Z,44.10
2019-06-01T08:41:43.785Z,44.50
2019-06-01T08:42:44.891Z,44.00
2019-06-01T08:43:45.997Z,44.00
2019-06-01T08:44:47.026Z,43.80
2019-06-01T08:45:48.155Z,44.00
2019-06-01T08:46:49.191Z,44.00
2019-06-01T08:47:50.221Z,44.00
2019-06-01T08:48:51.260Z,43.70
2019-06-01T08:49:52.288Z,44.00
2019-06-01T08:50:53.321Z,43.80
2019-06-01T08:51:54.346Z,42.70
2019-06-01T08:52:55.376Z,42.00
2019-06-01T08:53:56.401Z,42.40
2019-06-01T08:54:57.441Z,43.20
2019-06-01T08:55:58.476Z,43.00
2019-06-01T08:56:59.504Z,43.40
2019-06-01T08:58:00.532Z,43.50
2019-06-01T08:59:01.665Z,43.40
2019-06-01T09:00:07.824Z,42.20
2019-06-01T09:01:08.855Z,42.90
2019-06-01T09:02:09.893Z,43.40
2019-06-01T09:03:10.919Z,43.30
2019-06-01T09:04:11.959Z,42.40
2019-06-01T09:05:23.991Z,42.70
2019-06-01T09:06:16.131Z,42.80
2019-06-01T09:07:17.450Z,44.10
2019-06-01T09:08:18.523Z,44.10
2019-06-01T09:09:19.625Z,43.10
2019-06-01T09:10:20.656Z,43.50
2019-06-01T09:11:21.686Z,43.30
2019-06-01T09:12:22.722Z,43.40
2019-06-01T09:13:25.017Z,42.80
2019-06-01T09:14:27.216Z,42.20
2019-06-01T09:15:29.686Z,42.90
2019-06-01T09:16:31.618Z,42.80
2019-06-01T09:17:33.469Z,42.90
2019-06-01T09:18:35.836Z,43.50
2019-06-01T09:19:36.995Z,43.70
2019-06-01T09:20:39.053Z,44.00
2019-06-01T09:21:40.260Z,43.20
2019-06-01T09:22:41.293Z,42.90
2019-06-01T09:23:42.314Z,43.10
2019-06-01T09:24:43.344Z,43.10
2019-06-01T09:25:44.377Z,43.30
2019-06-01T09:26:45.386Z,42.30
2019-06-01T09:27:46.435Z,42.10
2019-06-01T09:28:47.449Z,41.70
2019-06-01T09:29:48.478Z,41.90
2019-06-01T09:30:49.507Z,41.90
2019-06-01T09:31:50.541Z,42.10
2019-06-01T09:32:51.671Z,41.90
2019-06-01T09:33:52.706Z,41.50
2019-06-01T09:34:53.762Z,41.60
2019-06-01T09:35:56.341Z,41.70
2019-06-01T09:36:57.719Z,41.70
2019-06-01T09:37:58.777Z,41.90
2019-06-01T09:39:00.037Z,41.80
2019-06-01T09:40:01.568Z,41.80
2019-06-01T09:41:02.646Z,41.20
2019-06-01T09:42:03.786Z,41.00
2019-06-01T09:43:04.894Z,42.40
2019-06-01T09:44:05.913Z,41.40
2019-06-01T09:45:07.930Z,41.00
2019-06-01T09:46:09.163Z,41.00
2019-06-01T09:47:10.180Z,41.40
2019-06-01T09:48:11.426Z,41.50
2019-06-01T09:49:12.516Z,41.70
2019-06-01T09:50:14.106Z,40.60
2019-06-01T09:51:15.181Z,40.10
2019-06-01T09:52:16.214Z,40.00
2019-06-01T09:53:17.237Z,40.30
2019-06-01T09:54:18.293Z,40.20
2019-06-01T09:55:19.418Z,40.10
2019-06-01T09:56:20.528Z,40.20
2019-06-01T09:57:21.559Z,40.20
2019-06-01T09:58:22.688Z,40.50
2019-06-01T09:59:23.708Z,40.80
2019-06-01T10:00:25.009Z,39.50
2019-06-01T10:01:26.078Z,40.00
2019-06-01T10:02:28.053Z,39.40
2019-06-01T10:03:30.240Z,40.10
2019-06-01T10:04:32.272Z,39.30
2019-06-01T10:05:34.808Z,40.00
2019-06-01T10:06:36.703Z,38.90
2019-06-01T10:07:39.361Z,38.40
2019-06-01T10:08:40.642Z,38.10
2019-06-01T10:09:42.165Z,38.50
2019-06-01T10:10:43.409Z,38.50
2019-06-01T10:11:44.669Z,37.70
2019-06-01T10:12:46.084Z,37.50
2019-06-01T10:13:47.236Z,37.50
2019-06-01T10:14:48.262Z,37.40
2019-06-01T10:15:49.498Z,36.50
2019-06-01T10:16:50.541Z,37.50
2019-06-01T10:17:51.648Z,37.00
2019-06-01T10:18:52.747Z,37.60
2019-06-01T10:19:53.759Z,37.70
2019-06-01T10:20:54.793Z,38.40
2019-06-01T10:21:55.810Z,38.80
2019-06-01T10:22:56.938Z,37.40
2019-06-01T10:23:57.977Z,37.10
2019-06-01T10:24:59.000Z,37.40
2019-06-01T10:26:00.035Z,37.00
2019-06-01T10:27:01.405Z,37.30
2019-06-01T10:28:02.822Z,36.30
2019-06-01T10:29:03.965Z,35.50
2019-06-01T10:30:08.363Z,36.00
2019-06-01T10:31:09.408Z,36.30
2019-06-01T10:32:10.741Z,35.40
2019-06-01T10:33:11.832Z,36.30
2019-06-01T10:34:12.874Z,35.50
2019-06-01T10:35:14.200Z,35.30
2019-06-01T10:36:20.771Z,36.60
2019-06-01T10:37:18.275Z,37.30
2019-06-01T10:38:19.320Z,36.40
2019-06-01T10:39:20.561Z,36.00
2019-06-01T10:40:21.592Z,36.00
2019-06-01T10:41:22.610Z,36.70
2019-06-01T10:42:23.661Z,36.80
2019-06-01T10:43:24.701Z,37.80
2019-06-01T10:44:25.706Z,37.70
2019-06-01T10:45:26.817Z,37.30
2019-06-01T10:46:27.970Z,36.20
2019-06-01T10:47:29.063Z,36.20
2019-06-01T10:48:30.113Z,37.10
2019-06-01T10:49:31.820Z,36.40
2019-06-01T10:50:34.791Z,36.70
2019-06-01T10:51:36.253Z,35.20
2019-06-01T10:52:38.344Z,35.30
2019-06-01T10:53:41.496Z,34.80
2019-06-01T10:54:43.033Z,35.40
2019-06-01T10:55:44.775Z,35.80
2019-06-01T10:56:45.997Z,36.20
2019-06-01T10:57:47.032Z,36.20
2019-06-01T10:58:59.737Z,36.20
2019-06-01T10:59:51.476Z,36.20
2019-06-01T11:00:52.509Z,36.30
2019-06-01T11:01:53.525Z,36.30
2019-06-01T11:02:54.538Z,36.30
2019-06-01T11:03:55.582Z,35.20
2019-06-01T11:04:56.612Z,35.30
2019-06-01T11:05:57.645Z,35.40
2019-06-01T11:06:58.671Z,35.50
2019-06-01T11:07:59.724Z,35.80
2019-06-01T11:09:00.776Z,36.30
2019-06-01T11:10:05.188Z,36.40
2019-06-01T11:11:06.204Z,36.10
2019-06-01T11:12:07.530Z,36.20
2019-06-01T11:13:08.551Z,35.70
2019-06-01T11:14:09.896Z,35.60
2019-06-01T11:15:11.521Z,34.70
2019-06-01T11:16:12.551Z,34.60
2019-06-01T11:17:13.685Z,33.80
2019-06-01T11:18:14.745Z,33.40
2019-06-01T11:19:15.850Z,33.90
2019-06-01T11:20:18.104Z,33.80
2019-06-01T11:21:19.116Z,33.50
2019-06-01T11:22:20.148Z,33.20
2019-06-01T11:23:21.193Z,32.80
2019-06-01T11:24:22.236Z,32.70
2019-06-01T11:25:23.266Z,33.50
2019-06-01T11:26:24.319Z,33.10
2019-06-01T11:27:25.341Z,33.30
2019-06-01T11:28:26.376Z,32.40
2019-06-01T11:29:27.583Z,31.50
2019-06-01T11:30:28.634Z,32.00
2019-06-01T11:31:29.665Z,32.20
2019-06-01T11:32:30.700Z,32.50
2019-06-01T11:33:31.822Z,32.40
2019-06-01T11:34:33.921Z,31.60
2019-06-01T11:35:35.304Z,31.80
2019-06-01T11:36:54.163Z,32.10
2019-06-01T11:37:40.457Z,32.40
2019-06-01T11:38:42.531Z,32.30
2019-06-01T11:39:44.810Z,32.10
2019-06-01T11:40:45.923Z,32.90
2019-06-01T11:41:46.983Z,32.10
2019-06-01T11:42:48.062Z,32.50
2019-06-01T11:43:49.197Z,32.40
2019-06-01T11:44:50.263Z,32.20
2019-06-01T11:45:51.362Z,32.10
2019-06-01T11:46:52.820Z,32.00
2019-06-01T11:47:53.932Z,32.20
2019-06-01T11:48:55.001Z,31.60
2019-06-01T11:49:56.145Z,32.10
2019-06-01T11:50:57.222Z,32.10
2019-06-01T11:51:58.251Z,31.70
2019-06-01T11:52:59.278Z,32.50
2019-06-01T11:54:00.302Z,30.90
2019-06-01T11:55:01.641Z,30.80
2019-06-01T11:56:04.202Z,31.10
2019-06-01T11:57:05.226Z,30.80
2019-06-01T11:58:06.276Z,31.90
2019-06-01T11:59:07.416Z,31.10
2019-06-01T12:00:11.023Z,30.80
2019-06-01T12:01:12.154Z,30.40
2019-06-01T12:02:13.186Z,30.70
2019-06-01T12:03:14.349Z,30.00
2019-06-01T12:04:15.368Z,29.20
2019-06-01T12:05:16.539Z,28.80
2019-06-01T12:06:17.577Z,28.80
2019-06-01T12:07:18.735Z,29.40
2019-06-01T12:08:19.836Z,29.40
2019-06-01T12:09:20.881Z,28.80
2019-06-01T12:10:22.137Z,29.30
2019-06-01T12:11:23.162Z,29.20
2019-06-01T12:12:24.195Z,29.60
2019-06-01T12:13:25.334Z,29.00
2019-06-01T12:14:26.475Z,28.80
2019-06-01T12:15:27.604Z,28.80
2019-06-01T12:16:28.669Z,30.00
2019-06-01T12:17:29.694Z,30.50
2019-06-01T12:18:30.723Z,29.70
2019-06-01T12:19:31.757Z,29.10
2019-06-01T12:20:32.781Z,29.00
2019-06-01T12:21:33.811Z,28.80
2019-06-01T12:22:34.847Z,29.00
2019-06-01T12:23:37.137Z,29.20
2019-06-01T12:24:38.836Z,29.20
2019-06-01T12:25:40.172Z,29.30
2019-06-01T12:26:41.377Z,29.40
2019-06-01T12:27:43.564Z,29.20
2019-06-01T12:28:45.842Z,29.00
2019-06-01T12:29:48.276Z,29.00
2019-06-01T12:30:49.876Z,29.00
2019-06-01T12:31:50.933Z,28.80
2019-06-01T12:32:51.966Z,28.30
2019-06-01T12:33:52.994Z,29.10
2019-06-01T12:34:54.017Z,29.10
2019-06-01T12:35:55.059Z,29.20
2019-06-01T12:36:56.089Z,28.60
2019-06-01T12:38:05.981Z,28.60
2019-06-01T12:39:00.053Z,28.50
2019-06-01T12:40:01.285Z,28.10
2019-06-01T12:41:02.397Z,28.00
2019-06-01T12:42:03.441Z,27.50
2019-06-01T12:43:04.510Z,27.60
2019-06-01T12:44:11.884Z,27.20
2019-06-01T12:45:15.822Z,27.30
2019-06-01T12:46:16.929Z,27.40
2019-06-01T12:47:17.996Z,26.70
2019-06-01T12:48:19.276Z,26.70
2019-06-01T12:49:20.308Z,27.00
2019-06-01T12:50:21.533Z,27.20
2019-06-01T12:51:22.602Z,27.20
2019-06-01T12:52:23.701Z,26.70
2019-06-01T12:53:25.505Z,27.00
2019-06-01T12:54:26.737Z,26.90
2019-06-01T12:55:27.768Z,26.50
2019-06-01T12:56:28.791Z,27.80
2019-06-01T12:57:29.832Z,27.70
2019-06-01T12:58:30.860Z,27.50
2019-06-01T12:59:31.893Z,27.80
2019-06-01T13:00:33.141Z,27.30
2019-06-01T13:01:34.263Z,26.10
2019-06-01T13:02:35.401Z,26.00
2019-06-01T13:03:36.425Z,26.40
2019-06-01T13:04:37.460Z,26.20
2019-06-01T13:05:38.803Z,26.30
2019-06-01T13:06:40.702Z,26.60
2019-06-01T13:07:53.033Z,28.20
2019-06-01T13:08:44.868Z,27.20
2019-06-01T13:09:46.198Z,26.80
2019-06-01T13:10:47.368Z,27.00
2019-06-01T13:11:49.488Z,26.90
2019-06-01T13:12:52.258Z,26.80
2019-06-01T13:13:53.552Z,27.00
2019-06-01T13:14:54.582Z,26.60
2019-06-01T13:15:55.607Z,26.30
2019-06-01T13:17:06.786Z,27.00